ENSD/SDN METAR and TAF weather

Enter ICAO airport designator
Station Type Date Time Source
ENSD METAR 2019/12/13 13:50 UTC NOAA

ENSD 131350Z 10007KT 070V130 CAVOK 05/M06 Q0984 RMK WIND 1138FT 12008G19KT


Station Type Date Time Source
ENSD Decoded METAR 2019/12/13 13:50 UTC NOAA

Sandane / Anda, Norway (ENSD) 61-50N 006-07E 60M
Dec 13, 2019 - 08:50 AM EST / 2019.12.13 1350 UTC
Wind: from the E (100 degrees) at 8 MPH (7 KT) (direction variable):0
Visibility: greater than 7 mile(s):0
Temperature: 41 F (5 C)
Dew Point: 21 F (-6 C)
Relative Humidity: 44%
Pressure (altimeter): 29.06 in. Hg (0984 hPa)
ob: ENSD 131350Z 10007KT 070V130 CAVOK 05/M06 Q0984 RMK WIND 1138FT 12008G19KT
cycle: 14

Station Type Date Time Source
ENSD TAF UTC NOAA

Error!

Example: see airport list